sensor_id;sensor_type;location;lat;lon;timestamp;temperature;humidity
20650;DHT22;10484;48.736;9.332;2023-06-14T00:00:40;17.40;1.00
20650;DHT22;10484;48.736;9.332;2023-06-14T00:03:10;17.40;1.00
20650;DHT22;10484;48.736;9.332;2023-06-14T00:05:37;17.40;1.00
20650;DHT22;10484;48.736;9.332;2023-06-14T00:08:06;17.30;1.00
20650;DHT22;10484;48.736;9.332;2023-06-14T00:10:38;17.30;1.00
20650;DHT22;10484;48.736;9.332;2023-06-14T00:13:06;17.30;1.00
20650;DHT22;10484;48.736;9.332;2023-06-14T00:15:32;17.20;1.00
20650;DHT22;10484;48.736;9.332;2023-06-14T00:17:58;17.10;1.00
20650;DHT22;10484;48.736;9.332;2023-06-14T00:20:28;17.10;1.00
20650;DHT22;10484;48.736;9.332;2023-06-14T00:22:54;17.10;1.00
20650;DHT22;10484;48.736;9.332;2023-06-14T00:25:22;17.00;1.00
20650;DHT22;10484;48.736;9.332;2023-06-14T00:27:49;17.00;1.00
20650;DHT22;10484;48.736;9.332;2023-06-14T00:30:14;16.90;1.00
20650;DHT22;10484;48.736;9.332;2023-06-14T00:32:40;16.80;1.00
20650;DHT22;10484;48.736;9.332;2023-06-14T00:35:08;16.80;1.00
20650;DHT22;10484;48.736;9.332;2023-06-14T00:37:34;16.70;1.00
20650;DHT22;10484;48.736;9.332;2023-06-14T00:39:59;16.60;1.00
20650;DHT22;10484;48.736;9.332;2023-06-14T00:42:26;16.60;1.00
20650;DHT22;10484;48.736;9.332;2023-06-14T00:44:51;16.60;1.00
20650;DHT22;10484;48.736;9.332;2023-06-14T00:47:17;16.60;1.00
20650;DHT22;10484;48.736;9.332;2023-06-14T00:49:44;16.50;1.00
20650;DHT22;10484;48.736;9.332;2023-06-14T00:52:10;16.50;1.00
20650;DHT22;10484;48.736;9.332;2023-06-14T00:54:39;16.40;1.00
20650;DHT22;10484;48.736;9.332;2023-06-14T00:57:05;16.40;1.00
20650;DHT22;10484;48.736;9.332;2023-06-14T00:59:31;16.30;1.00
20650;DHT22;10484;48.736;9.332;2023-06-14T01:01:57;16.30;1.00
20650;DHT22;10484;48.736;9.332;2023-06-14T01:04:22;16.30;1.00
20650;DHT22;10484;48.736;9.332;2023-06-14T01:07:09;16.20;1.00
20650;DHT22;10484;48.736;9.332;2023-06-14T01:12:24;16.10;1.00
20650;DHT22;10484;48.736;9.332;2023-06-14T01:14:54;16.10;1.00
20650;DHT22;10484;48.736;9.332;2023-06-14T01:17:21;16.00;1.00
20650;DHT22;10484;48.736;9.332;2023-06-14T01:19:48;16.00;1.00
20650;DHT22;10484;48.736;9.332;2023-06-14T01:22:14;16.00;1.00
20650;DHT22;10484;48.736;9.332;2023-06-14T01:24:40;16.00;1.00
20650;DHT22;10484;48.736;9.332;2023-06-14T01:27:10;15.90;1.00
20650;DHT22;10484;48.736;9.332;2023-06-14T01:29:37;15.90;1.00
20650;DHT22;10484;48.736;9.332;2023-06-14T01:32:04;15.80;1.00
20650;DHT22;10484;48.736;9.332;2023-06-14T01:34:30;15.80;1.00
20650;DHT22;10484;48.736;9.332;2023-06-14T01:36:57;15.70;1.00
20650;DHT22;10484;48.736;9.332;2023-06-14T01:39:25;15.60;1.00
20650;DHT22;10484;48.736;9.332;2023-06-14T01:41:51;15.60;1.00
20650;DHT22;10484;48.736;9.332;2023-06-14T01:44:18;15.60;1.00
20650;DHT22;10484;48.736;9.332;2023-06-14T01:46:44;15.50;1.00
20650;DHT22;10484;48.736;9.332;2023-06-14T01:49:11;15.50;1.00
20650;DHT22;10484;48.736;9.332;2023-06-14T01:51:37;15.40;1.00
20650;DHT22;10484;48.736;9.332;2023-06-14T01:54:02;15.50;1.00
20650;DHT22;10484;48.736;9.332;2023-06-14T01:56:28;15.40;1.00
20650;DHT22;10484;48.736;9.332;2023-06-14T01:58:54;15.40;1.00
20650;DHT22;10484;48.736;9.332;2023-06-14T02:01:20;15.30;1.00
20650;DHT22;10484;48.736;9.332;2023-06-14T02:03:47;15.20;1.00
20650;DHT22;10484;48.736;9.332;2023-06-14T02:06:13;15.30;1.00
20650;DHT22;10484;48.736;9.332;2023-06-14T02:08:39;15.20;1.00
20650;DHT22;10484;48.736;9.332;2023-06-14T02:11:05;15.20;1.00
20650;DHT22;10484;48.736;9.332;2023-06-14T02:13:30;15.10;1.00
20650;DHT22;10484;48.736;9.332;2023-06-14T02:15:56;15.10;1.00
20650;DHT22;10484;48.736;9.332;2023-06-14T02:18:23;15.10;1.00
20650;DHT22;10484;48.736;9.332;2023-06-14T02:20:48;15.00;1.00
20650;DHT22;10484;48.736;9.332;2023-06-14T02:23:14;15.00;1.00
20650;DHT22;10484;48.736;9.332;2023-06-14T02:25:40;15.00;1.00
20650;DHT22;10484;48.736;9.332;2023-06-14T02:28:06;15.00;1.00
20650;DHT22;10484;48.736;9.332;2023-06-14T02:30:31;14.90;1.00
20650;DHT22;10484;48.736;9.332;2023-06-14T02:32:57;14.90;1.00
20650;DHT22;10484;48.736;9.332;2023-06-14T02:35:23;14.80;1.00
20650;DHT22;10484;48.736;9.332;2023-06-14T02:37:52;14.80;1.00
20650;DHT22;10484;48.736;9.332;2023-06-14T02:40:19;14.80;1.00
20650;DHT22;10484;48.736;9.332;2023-06-14T02:42:45;14.70;1.00
20650;DHT22;10484;48.736;9.332;2023-06-14T02:45:10;14.60;1.00
20650;DHT22;10484;48.736;9.332;2023-06-14T02:47:36;14.60;1.00
20650;DHT22;10484;48.736;9.332;2023-06-14T02:50:02;14.50;1.00
20650;DHT22;10484;48.736;9.332;2023-06-14T02:52:28;14.50;1.00
20650;DHT22;10484;48.736;9.332;2023-06-14T02:54:54;14.40;1.00
20650;DHT22;10484;48.736;9.332;2023-06-14T02:57:20;14.40;1.00
20650;DHT22;10484;48.736;9.332;2023-06-14T02:59:46;14.40;1.00
20650;DHT22;10484;48.736;9.332;2023-06-14T03:02:11;14.40;1.00
20650;DHT22;10484;48.736;9.332;2023-06-14T03:04:37;14.30;1.00
20650;DHT22;10484;48.736;9.332;2023-06-14T03:07:03;14.40;1.00
20650;DHT22;10484;48.736;9.332;2023-06-14T03:09:37;14.30;1.00
20650;DHT22;10484;48.736;9.332;2023-06-14T03:12:04;14.30;1.00
20650;DHT22;10484;48.736;9.332;2023-06-14T03:14:32;14.30;1.00
20650;DHT22;10484;48.736;9.332;2023-06-14T03:16:58;14.20;1.00
20650;DHT22;10484;48.736;9.332;2023-06-14T03:19:24;14.20;1.00
20650;DHT22;10484;48.736;9.332;2023-06-14T03:21:51;14.20;1.00
20650;DHT22;10484;48.736;9.332;2023-06-14T03:24:16;14.10;1.00
20650;DHT22;10484;48.736;9.332;2023-06-14T03:26:42;14.10;1.00
20650;DHT22;10484;48.736;9.332;2023-06-14T03:29:08;14.00;1.00
20650;DHT22;10484;48.736;9.332;2023-06-14T03:31:34;14.00;1.00
20650;DHT22;10484;48.736;9.332;2023-06-14T03:34:01;14.00;1.00
20650;DHT22;10484;48.736;9.332;2023-06-14T03:36:26;13.90;1.00
20650;DHT22;10484;48.736;9.332;2023-06-14T03:38:53;13.90;1.00
20650;DHT22;10484;48.736;9.332;2023-06-14T03:41:20;13.90;1.00
20650;DHT22;10484;48.736;9.332;2023-06-14T03:43:45;13.90;1.00
20650;DHT22;10484;48.736;9.332;2023-06-14T03:46:11;13.90;1.00
20650;DHT22;10484;48.736;9.332;2023-06-14T03:48:36;13.90;1.00
20650;DHT22;10484;48.736;9.332;2023-06-14T03:51:02;13.90;1.00
20650;DHT22;10484;48.736;9.332;2023-06-14T03:53:28;13.90;1.00
20650;DHT22;10484;48.736;9.332;2023-06-14T03:55:55;13.80;1.00
20650;DHT22;10484;48.736;9.332;2023-06-14T03:58:20;13.80;1.00
20650;DHT22;10484;48.736;9.332;2023-06-14T04:00:47;13.80;1.00
20650;DHT22;10484;48.736;9.332;2023-06-14T04:03:13;13.80;1.00
20650;DHT22;10484;48.736;9.332;2023-06-14T04:05:41;13.80;1.00
20650;DHT22;10484;48.736;9.332;2023-06-14T04:08:08;13.80;1.00
20650;DHT22;10484;48.736;9.332;2023-06-14T04:10:40;13.70;1.00
20650;DHT22;10484;48.736;9.332;2023-06-14T04:13:05;13.80;1.00
20650;DHT22;10484;48.736;9.332;2023-06-14T04:15:32;13.70;1.00
20650;DHT22;10484;48.736;9.332;2023-06-14T04:17:58;13.70;1.00
20650;DHT22;10484;48.736;9.332;2023-06-14T04:20:24;13.70;1.00
20650;DHT22;10484;48.736;9.332;2023-06-14T04:22:51;13.70;1.00
20650;DHT22;10484;48.736;9.332;2023-06-14T04:25:18;13.60;1.00
20650;DHT22;10484;48.736;9.332;2023-06-14T04:27:43;13.60;1.10
20650;DHT22;10484;48.736;9.332;2023-06-14T04:30:09;13.60;1.00
20650;DHT22;10484;48.736;9.332;2023-06-14T04:32:35;13.60;1.10
20650;DHT22;10484;48.736;9.332;2023-06-14T04:35:08;13.60;1.50
20650;DHT22;10484;48.736;9.332;2023-06-14T04:37:33;13.60;2.00
20650;DHT22;10484;48.736;9.332;2023-06-14T04:40:00;13.60;2.50
20650;DHT22;10484;48.736;9.332;2023-06-14T04:42:26;13.60;3.00
20650;DHT22;10484;48.736;9.332;2023-06-14T04:44:56;13.70;3.70
20650;DHT22;10484;48.736;9.332;2023-06-14T04:47:22;13.70;3.90
20650;DHT22;10484;48.736;9.332;2023-06-14T04:49:50;13.70;4.30
20650;DHT22;10484;48.736;9.332;2023-06-14T04:52:18;13.70;4.70
20650;DHT22;10484;48.736;9.332;2023-06-14T04:54:47;13.70;5.30
20650;DHT22;10484;48.736;9.332;2023-06-14T04:57:13;13.70;5.70
20650;DHT22;10484;48.736;9.332;2023-06-14T04:59:40;13.70;6.00
20650;DHT22;10484;48.736;9.332;2023-06-14T05:02:05;13.70;6.40
20650;DHT22;10484;48.736;9.332;2023-06-14T05:04:32;13.80;6.70
20650;DHT22;10484;48.736;9.332;2023-06-14T05:06:58;13.80;7.00
20650;DHT22;10484;48.736;9.332;2023-06-14T05:09:24;13.90;9.40
20650;DHT22;10484;48.736;9.332;2023-06-14T05:11:49;13.90;7.40
20650;DHT22;10484;48.736;9.332;2023-06-14T05:14:16;14.00;8.30
20650;DHT22;10484;48.736;9.332;2023-06-14T05:16:41;14.00;8.10
20650;DHT22;10484;48.736;9.332;2023-06-14T05:19:08;14.10;8.00
20650;DHT22;10484;48.736;9.332;2023-06-14T05:21:34;14.10;7.60
20650;DHT22;10484;48.736;9.332;2023-06-14T05:24:00;14.20;7.40
20650;DHT22;10484;48.736;9.332;2023-06-14T05:26:26;14.20;7.60
20650;DHT22;10484;48.736;9.332;2023-06-14T05:28:58;14.30;7.50
20650;DHT22;10484;48.736;9.332;2023-06-14T05:31:26;14.30;7.30
20650;DHT22;10484;48.736;9.332;2023-06-14T05:33:52;14.40;7.40
20650;DHT22;10484;48.736;9.332;2023-06-14T05:36:19;14.40;7.50
20650;DHT22;10484;48.736;9.332;2023-06-14T05:38:45;14.40;6.80
20650;DHT22;10484;48.736;9.332;2023-06-14T05:41:11;14.40;6.30
20650;DHT22;10484;48.736;9.332;2023-06-14T05:43:36;14.50;5.80
20650;DHT22;10484;48.736;9.332;2023-06-14T05:46:02;14.50;5.60
20650;DHT22;10484;48.736;9.332;2023-06-14T05:48:28;14.60;5.40
20650;DHT22;10484;48.736;9.332;2023-06-14T05:50:54;14.60;5.30
20650;DHT22;10484;48.736;9.332;2023-06-14T05:53:20;14.70;5.30
20650;DHT22;10484;48.736;9.332;2023-06-14T05:55:45;14.70;5.30
20650;DHT22;10484;48.736;9.332;2023-06-14T05:58:11;14.70;5.30
20650;DHT22;10484;48.736;9.332;2023-06-14T06:00:39;14.70;5.40
20650;DHT22;10484;48.736;9.332;2023-06-14T06:03:04;14.80;5.20
20650;DHT22;10484;48.736;9.332;2023-06-14T06:05:30;14.80;5.40
20650;DHT22;10484;48.736;9.332;2023-06-14T06:07:56;14.80;5.00
20650;DHT22;10484;48.736;9.332;2023-06-14T06:10:21;14.80;5.20
20650;DHT22;10484;48.736;9.332;2023-06-14T06:12:47;14.90;5.20
20650;DHT22;10484;48.736;9.332;2023-06-14T06:15:15;14.90;5.30
20650;DHT22;10484;48.736;9.332;2023-06-14T06:17:41;15.00;5.40
20650;DHT22;10484;48.736;9.332;2023-06-14T06:20:07;14.90;5.30
20650;DHT22;10484;48.736;9.332;2023-06-14T06:22:36;15.00;5.20
20650;DHT22;10484;48.736;9.332;2023-06-14T06:25:02;15.00;5.00
20650;DHT22;10484;48.736;9.332;2023-06-14T06:27:28;15.00;4.90
20650;DHT22;10484;48.736;9.332;2023-06-14T06:29:54;15.10;5.00
20650;DHT22;10484;48.736;9.332;2023-06-14T06:32:21;15.10;4.80
20650;DHT22;10484;48.736;9.332;2023-06-14T06:34:47;15.10;4.70
20650;DHT22;10484;48.736;9.332;2023-06-14T06:37:19;15.20;4.70
20650;DHT22;10484;48.736;9.332;2023-06-14T06:39:45;15.20;4.70
20650;DHT22;10484;48.736;9.332;2023-06-14T06:42:18;15.30;7.90
20650;DHT22;10484;48.736;9.332;2023-06-14T06:44:44;15.30;4.80
20650;DHT22;10484;48.736;9.332;2023-06-14T06:47:10;15.40;4.80
20650;DHT22;10484;48.736;9.332;2023-06-14T06:49:45;15.40;4.80
20650;DHT22;10484;48.736;9.332;2023-06-14T06:52:11;15.50;5.00
20650;DHT22;10484;48.736;9.332;2023-06-14T06:54:41;15.50;4.90
20650;DHT22;10484;48.736;9.332;2023-06-14T06:57:07;15.60;5.00
20650;DHT22;10484;48.736;9.332;2023-06-14T06:59:33;15.60;4.90
20650;DHT22;10484;48.736;9.332;2023-06-14T07:01:59;15.70;4.90
20650;DHT22;10484;48.736;9.332;2023-06-14T07:04:25;15.70;4.30
20650;DHT22;10484;48.736;9.332;2023-06-14T07:06:59;15.80;4.30
20650;DHT22;10484;48.736;9.332;2023-06-14T07:09:25;15.80;4.10
20650;DHT22;10484;48.736;9.332;2023-06-14T07:11:50;15.90;3.60
20650;DHT22;10484;48.736;9.332;2023-06-14T07:14:17;15.90;3.20
20650;DHT22;10484;48.736;9.332;2023-06-14T07:16:43;16.10;3.20
20650;DHT22;10484;48.736;9.332;2023-06-14T07:19:10;16.10;3.10
20650;DHT22;10484;48.736;9.332;2023-06-14T07:21:36;16.20;3.00
20650;DHT22;10484;48.736;9.332;2023-06-14T07:24:05;16.30;2.80
20650;DHT22;10484;48.736;9.332;2023-06-14T07:26:35;16.40;2.60
20650;DHT22;10484;48.736;9.332;2023-06-14T07:29:08;16.50;2.40
20650;DHT22;10484;48.736;9.332;2023-06-14T07:31:37;16.70;2.00
20650;DHT22;10484;48.736;9.332;2023-06-14T07:34:03;17.00;1.00
20650;DHT22;10484;48.736;9.332;2023-06-14T07:36:29;17.10;1.00
20650;DHT22;10484;48.736;9.332;2023-06-14T07:38:55;17.10;1.00
20650;DHT22;10484;48.736;9.332;2023-06-14T07:41:21;17.10;1.00
20650;DHT22;10484;48.736;9.332;2023-06-14T07:43:47;17.20;1.00
20650;DHT22;10484;48.736;9.332;2023-06-14T07:46:14;17.30;1.00
20650;DHT22;10484;48.736;9.332;2023-06-14T07:48:40;17.40;1.00
20650;DHT22;10484;48.736;9.332;2023-06-14T07:51:06;17.50;1.00
20650;DHT22;10484;48.736;9.332;2023-06-14T07:53:36;17.60;1.00
20650;DHT22;10484;48.736;9.332;2023-06-14T07:56:02;17.70;1.00
20650;DHT22;10484;48.736;9.332;2023-06-14T07:58:28;17.80;1.00
20650;DHT22;10484;48.736;9.332;2023-06-14T08:00:54;17.90;1.00
20650;DHT22;10484;48.736;9.332;2023-06-14T08:03:20;18.10;1.00
20650;DHT22;10484;48.736;9.332;2023-06-14T08:05:46;18.20;1.00
20650;DHT22;10484;48.736;9.332;2023-06-14T08:08:11;18.30;1.00
20650;DHT22;10484;48.736;9.332;2023-06-14T08:10:38;18.50;1.00
20650;DHT22;10484;48.736;9.332;2023-06-14T08:13:04;18.60;1.00
20650;DHT22;10484;48.736;9.332;2023-06-14T08:15:30;18.60;1.00
20650;DHT22;10484;48.736;9.332;2023-06-14T08:17:55;18.80;1.00
20650;DHT22;10484;48.736;9.332;2023-06-14T08:20:23;19.00;1.00
20650;DHT22;10484;48.736;9.332;2023-06-14T08:22:49;19.10;1.00
20650;DHT22;10484;48.736;9.332;2023-06-14T08:25:15;19.20;1.00
20650;DHT22;10484;48.736;9.332;2023-06-14T08:27:41;19.30;1.00
20650;DHT22;10484;48.736;9.332;2023-06-14T08:30:07;19.30;1.00
20650;DHT22;10484;48.736;9.332;2023-06-14T08:32:33;19.40;1.00
20650;DHT22;10484;48.736;9.332;2023-06-14T08:35:06;19.50;1.00
20650;DHT22;10484;48.736;9.332;2023-06-14T08:37:32;19.70;1.00
20650;DHT22;10484;48.736;9.332;2023-06-14T08:40:01;19.90;1.00
20650;DHT22;10484;48.736;9.332;2023-06-14T08:42:32;20.00;1.00
20650;DHT22;10484;48.736;9.332;2023-06-14T08:44:57;20.10;1.00
20650;DHT22;10484;48.736;9.332;2023-06-14T08:47:25;20.20;1.00
20650;DHT22;10484;48.736;9.332;2023-06-14T08:49:53;20.30;1.00
20650;DHT22;10484;48.736;9.332;2023-06-14T08:52:32;20.50;1.00
20650;DHT22;10484;48.736;9.332;2023-06-14T08:54:59;20.60;1.00
20650;DHT22;10484;48.736;9.332;2023-06-14T08:57:35;20.70;1.00
20650;DHT22;10484;48.736;9.332;2023-06-14T09:00:05;20.80;1.00
20650;DHT22;10484;48.736;9.332;2023-06-14T09:02:38;20.80;1.00
20650;DHT22;10484;48.736;9.332;2023-06-14T09:05:10;21.00;1.00
20650;DHT22;10484;48.736;9.332;2023-06-14T09:07:40;21.20;1.00
20650;DHT22;10484;48.736;9.332;2023-06-14T09:10:12;21.30;1.00
20650;DHT22;10484;48.736;9.332;2023-06-14T09:12:38;21.40;1.00
20650;DHT22;10484;48.736;9.332;2023-06-14T09:15:08;21.50;1.00
20650;DHT22;10484;48.736;9.332;2023-06-14T09:17:38;21.60;1.00
20650;DHT22;10484;48.736;9.332;2023-06-14T09:20:09;21.70;1.00
20650;DHT22;10484;48.736;9.332;2023-06-14T09:22:37;21.80;1.00
20650;DHT22;10484;48.736;9.332;2023-06-14T09:25:04;21.90;1.00
20650;DHT22;10484;48.736;9.332;2023-06-14T09:27:36;22.00;1.00
20650;DHT22;10484;48.736;9.332;2023-06-14T09:30:05;22.20;1.00
20650;DHT22;10484;48.736;9.332;2023-06-14T09:32:37;22.30;1.00
20650;DHT22;10484;48.736;9.332;2023-06-14T09:35:08;22.40;1.00
20650;DHT22;10484;48.736;9.332;2023-06-14T09:37:35;22.50;1.00
20650;DHT22;10484;48.736;9.332;2023-06-14T09:40:03;22.60;1.00
20650;DHT22;10484;48.736;9.332;2023-06-14T09:42:33;22.70;1.00
20650;DHT22;10484;48.736;9.332;2023-06-14T09:45:02;22.70;1.00
20650;DHT22;10484;48.736;9.332;2023-06-14T09:47:28;22.80;1.00
20650;DHT22;10484;48.736;9.332;2023-06-14T09:49:55;22.90;1.00
20650;DHT22;10484;48.736;9.332;2023-06-14T09:52:21;23.00;1.00
20650;DHT22;10484;48.736;9.332;2023-06-14T09:54:50;23.10;1.00
20650;DHT22;10484;48.736;9.332;2023-06-14T09:57:20;23.20;1.00
20650;DHT22;10484;48.736;9.332;2023-06-14T09:59:48;23.30;1.00
20650;DHT22;10484;48.736;9.332;2023-06-14T10:02:28;23.40;1.00
20650;DHT22;10484;48.736;9.332;2023-06-14T10:05:13;23.60;1.00
20650;DHT22;10484;48.736;9.332;2023-06-14T10:10:15;23.60;1.00
20650;DHT22;10484;48.736;9.332;2023-06-14T10:12:41;23.60;1.00
20650;DHT22;10484;48.736;9.332;2023-06-14T10:15:10;23.50;1.00
20650;DHT22;10484;48.736;9.332;2023-06-14T10:18:06;23.40;1.00
20650;DHT22;10484;48.736;9.332;2023-06-14T10:21:03;23.40;1.00
20650;DHT22;10484;48.736;9.332;2023-06-14T10:23:33;23.40;1.00
20650;DHT22;10484;48.736;9.332;2023-06-14T10:26:01;23.40;1.00
20650;DHT22;10484;48.736;9.332;2023-06-14T10:28:27;23.40;1.00
20650;DHT22;10484;48.736;9.332;2023-06-14T10:31:10;23.50;1.00
20650;DHT22;10484;48.736;9.332;2023-06-14T10:36:26;23.70;1.00
20650;DHT22;10484;48.736;9.332;2023-06-14T10:39:14;23.90;1.00
20650;DHT22;10484;48.736;9.332;2023-06-14T10:41:41;24.00;1.00
20650;DHT22;10484;48.736;9.332;2023-06-14T10:46:46;24.10;1.00
20650;DHT22;10484;48.736;9.332;2023-06-14T10:49:44;24.00;1.00
20650;DHT22;10484;48.736;9.332;2023-06-14T10:52:22;23.90;1.00
20650;DHT22;10484;48.736;9.332;2023-06-14T10:55:15;23.90;1.00
20650;DHT22;10484;48.736;9.332;2023-06-14T10:57:52;24.00;1.00
20650;DHT22;10484;48.736;9.332;2023-06-14T11:00:28;24.10;1.00
20650;DHT22;10484;48.736;9.332;2023-06-14T11:05:51;24.30;1.00
20650;DHT22;10484;48.736;9.332;2023-06-14T11:11:07;24.50;1.00
20650;DHT22;10484;48.736;9.332;2023-06-14T11:13:36;24.60;1.00
20650;DHT22;10484;48.736;9.332;2023-06-14T11:16:15;24.70;1.00
20650;DHT22;10484;48.736;9.332;2023-06-14T11:18:44;24.80;1.00
20650;DHT22;10484;48.736;9.332;2023-06-14T11:21:10;24.90;1.00
20650;DHT22;10484;48.736;9.332;2023-06-14T11:23:36;25.00;1.00
20650;DHT22;10484;48.736;9.332;2023-06-14T11:26:02;25.00;1.00
20650;DHT22;10484;48.736;9.332;2023-06-14T11:28:40;25.00;1.00
20650;DHT22;10484;48.736;9.332;2023-06-14T11:31:07;25.00;1.00
20650;DHT22;10484;48.736;9.332;2023-06-14T11:33:34;25.10;1.00
20650;DHT22;10484;48.736;9.332;2023-06-14T11:36:02;25.20;1.00
20650;DHT22;10484;48.736;9.332;2023-06-14T11:38:30;25.20;1.00
20650;DHT22;10484;48.736;9.332;2023-06-14T11:40:59;25.20;1.00
20650;DHT22;10484;48.736;9.332;2023-06-14T11:43:31;25.20;1.00
20650;DHT22;10484;48.736;9.332;2023-06-14T11:45:58;25.10;1.00
20650;DHT22;10484;48.736;9.332;2023-06-14T11:48:36;25.00;1.00
20650;DHT22;10484;48.736;9.332;2023-06-14T11:51:02;25.00;1.00
20650;DHT22;10484;48.736;9.332;2023-06-14T11:53:28;25.10;1.00
20650;DHT22;10484;48.736;9.332;2023-06-14T11:55:55;25.10;1.00
20650;DHT22;10484;48.736;9.332;2023-06-14T11:58:20;25.20;1.00
20650;DHT22;10484;48.736;9.332;2023-06-14T12:00:49;25.30;1.00
20650;DHT22;10484;48.736;9.332;2023-06-14T12:03:15;25.40;1.00
20650;DHT22;10484;48.736;9.332;2023-06-14T12:05:42;25.60;1.00
20650;DHT22;10484;48.736;9.332;2023-06-14T12:08:09;25.70;1.00
20650;DHT22;10484;48.736;9.332;2023-06-14T12:10:42;25.80;1.00
20650;DHT22;10484;48.736;9.332;2023-06-14T12:13:16;25.80;1.00
20650;DHT22;10484;48.736;9.332;2023-06-14T12:15:42;25.70;1.00
20650;DHT22;10484;48.736;9.332;2023-06-14T12:18:10;25.60;1.00
20650;DHT22;10484;48.736;9.332;2023-06-14T12:20:36;25.60;1.00
20650;DHT22;10484;48.736;9.332;2023-06-14T12:23:04;25.70;1.00
20650;DHT22;10484;48.736;9.332;2023-06-14T12:25:37;25.80;1.00
20650;DHT22;10484;48.736;9.332;2023-06-14T12:28:10;25.80;1.00
20650;DHT22;10484;48.736;9.332;2023-06-14T12:30:37;25.70;1.00
20650;DHT22;10484;48.736;9.332;2023-06-14T12:33:03;25.80;1.00
20650;DHT22;10484;48.736;9.332;2023-06-14T12:35:29;25.80;1.00
20650;DHT22;10484;48.736;9.332;2023-06-14T12:37:55;25.90;1.00
20650;DHT22;10484;48.736;9.332;2023-06-14T12:40:22;26.10;1.00
20650;DHT22;10484;48.736;9.332;2023-06-14T12:42:52;26.10;1.00
20650;DHT22;10484;48.736;9.332;2023-06-14T12:45:18;26.30;1.00
20650;DHT22;10484;48.736;9.332;2023-06-14T12:47:43;26.30;1.00
20650;DHT22;10484;48.736;9.332;2023-06-14T12:50:09;26.40;1.00
20650;DHT22;10484;48.736;9.332;2023-06-14T12:52:36;26.50;1.00
20650;DHT22;10484;48.736;9.332;2023-06-14T12:55:05;26.60;1.00
20650;DHT22;10484;48.736;9.332;2023-06-14T12:57:32;26.70;1.00
20650;DHT22;10484;48.736;9.332;2023-06-14T13:00:03;26.70;1.00
20650;DHT22;10484;48.736;9.332;2023-06-14T13:02:37;26.80;1.00
20650;DHT22;10484;48.736;9.332;2023-06-14T13:05:03;26.80;1.00
20650;DHT22;10484;48.736;9.332;2023-06-14T13:07:29;26.90;1.00
20650;DHT22;10484;48.736;9.332;2023-06-14T13:09:55;27.00;1.00
20650;DHT22;10484;48.736;9.332;2023-06-14T13:12:21;27.00;1.00
20650;DHT22;10484;48.736;9.332;2023-06-14T13:14:47;27.10;1.00
20650;DHT22;10484;48.736;9.332;2023-06-14T13:17:13;27.10;1.00
20650;DHT22;10484;48.736;9.332;2023-06-14T13:19:39;27.10;1.00
20650;DHT22;10484;48.736;9.332;2023-06-14T13:22:05;27.00;1.00
20650;DHT22;10484;48.736;9.332;2023-06-14T13:24:31;26.90;1.00
20650;DHT22;10484;48.736;9.332;2023-06-14T13:26:57;26.80;1.00
20650;DHT22;10484;48.736;9.332;2023-06-14T13:29:24;26.80;1.00
20650;DHT22;10484;48.736;9.332;2023-06-14T13:31:50;26.80;1.00
20650;DHT22;10484;48.736;9.332;2023-06-14T13:34:18;26.80;1.00
20650;DHT22;10484;48.736;9.332;2023-06-14T13:36:44;26.90;1.00
20650;DHT22;10484;48.736;9.332;2023-06-14T13:39:10;27.00;1.00
20650;DHT22;10484;48.736;9.332;2023-06-14T13:41:36;27.10;1.00
20650;DHT22;10484;48.736;9.332;2023-06-14T13:44:02;27.20;1.00
20650;DHT22;10484;48.736;9.332;2023-06-14T13:46:31;27.20;1.00
20650;DHT22;10484;48.736;9.332;2023-06-14T13:48:57;27.30;1.00
20650;DHT22;10484;48.736;9.332;2023-06-14T13:51:23;27.40;1.00
20650;DHT22;10484;48.736;9.332;2023-06-14T13:53:49;27.50;1.00
20650;DHT22;10484;48.736;9.332;2023-06-14T13:56:16;27.50;1.00
20650;DHT22;10484;48.736;9.332;2023-06-14T13:58:43;27.60;1.00
20650;DHT22;10484;48.736;9.332;2023-06-14T14:01:09;27.60;1.00
20650;DHT22;10484;48.736;9.332;2023-06-14T14:03:35;27.60;1.00
20650;DHT22;10484;48.736;9.332;2023-06-14T14:06:02;27.70;1.00
20650;DHT22;10484;48.736;9.332;2023-06-14T14:08:28;27.60;1.00
20650;DHT22;10484;48.736;9.332;2023-06-14T14:10:54;27.40;1.00
20650;DHT22;10484;48.736;9.332;2023-06-14T14:13:21;27.20;1.00
20650;DHT22;10484;48.736;9.332;2023-06-14T14:15:48;27.00;1.00
20650;DHT22;10484;48.736;9.332;2023-06-14T14:18:14;27.00;1.00
20650;DHT22;10484;48.736;9.332;2023-06-14T14:20:41;26.80;1.00
20650;DHT22;10484;48.736;9.332;2023-06-14T14:23:12;26.60;1.00
20650;DHT22;10484;48.736;9.332;2023-06-14T14:25:38;26.70;1.00
20650;DHT22;10484;48.736;9.332;2023-06-14T14:28:04;26.70;1.00
20650;DHT22;10484;48.736;9.332;2023-06-14T14:30:35;26.60;1.00
20650;DHT22;10484;48.736;9.332;2023-06-14T14:33:03;26.60;1.00
20650;DHT22;10484;48.736;9.332;2023-06-14T14:35:35;26.60;1.00
20650;DHT22;10484;48.736;9.332;2023-06-14T14:38:01;26.70;1.00
20650;DHT22;10484;48.736;9.332;2023-06-14T14:40:28;26.80;1.00
20650;DHT22;10484;48.736;9.332;2023-06-14T14:42:54;27.00;1.00
20650;DHT22;10484;48.736;9.332;2023-06-14T14:45:20;27.00;1.00
20650;DHT22;10484;48.736;9.332;2023-06-14T14:47:46;27.00;1.00
20650;DHT22;10484;48.736;9.332;2023-06-14T14:50:20;27.00;1.00
20650;DHT22;10484;48.736;9.332;2023-06-14T14:52:45;27.00;1.00
20650;DHT22;10484;48.736;9.332;2023-06-14T14:55:11;26.90;1.00
20650;DHT22;10484;48.736;9.332;2023-06-14T14:57:43;27.00;1.00
20650;DHT22;10484;48.736;9.332;2023-06-14T15:00:14;27.00;1.00
20650;DHT22;10484;48.736;9.332;2023-06-14T15:02:40;27.00;1.00
20650;DHT22;10484;48.736;9.332;2023-06-14T15:05:06;27.00;1.00
20650;DHT22;10484;48.736;9.332;2023-06-14T15:07:41;27.00;1.00
20650;DHT22;10484;48.736;9.332;2023-06-14T15:10:07;27.10;1.00
20650;DHT22;10484;48.736;9.332;2023-06-14T15:12:34;27.10;1.00
20650;DHT22;10484;48.736;9.332;2023-06-14T15:15:00;27.00;1.00
20650;DHT22;10484;48.736;9.332;2023-06-14T15:17:28;27.00;1.00
20650;DHT22;10484;48.736;9.332;2023-06-14T15:19:54;27.00;1.00
20650;DHT22;10484;48.736;9.332;2023-06-14T15:22:25;27.00;1.00
20650;DHT22;10484;48.736;9.332;2023-06-14T15:24:58;26.90;1.00
20650;DHT22;10484;48.736;9.332;2023-06-14T15:27:24;26.90;1.00
20650;DHT22;10484;48.736;9.332;2023-06-14T15:29:50;26.90;1.00
20650;DHT22;10484;48.736;9.332;2023-06-14T15:32:22;26.80;1.00
20650;DHT22;10484;48.736;9.332;2023-06-14T15:34:48;26.80;1.00
20650;DHT22;10484;48.736;9.332;2023-06-14T15:37:18;26.90;1.00
20650;DHT22;10484;48.736;9.332;2023-06-14T15:39:43;26.90;1.00
20650;DHT22;10484;48.736;9.332;2023-06-14T15:42:14;26.90;1.00
20650;DHT22;10484;48.736;9.332;2023-06-14T15:44:41;26.80;1.00
20650;DHT22;10484;48.736;9.332;2023-06-14T15:47:12;26.80;1.00
20650;DHT22;10484;48.736;9.332;2023-06-14T15:49:38;26.80;1.00
20650;DHT22;10484;48.736;9.332;2023-06-14T15:52:05;26.80;1.00
20650;DHT22;10484;48.736;9.332;2023-06-14T15:54:32;26.70;1.00
20650;DHT22;10484;48.736;9.332;2023-06-14T15:57:06;26.60;1.00
20650;DHT22;10484;48.736;9.332;2023-06-14T15:59:34;26.60;1.00
20650;DHT22;10484;48.736;9.332;2023-06-14T16:02:06;26.50;1.00
20650;DHT22;10484;48.736;9.332;2023-06-14T16:04:40;26.50;1.00